Главная страница
METAR-TAF:

METAR-TAF

Аэропорты :

Витебск, Белоруссия

широта: 55-10N, долгота: 030-13E, высота над уровнем моря: 176 м

Текущие метеонаблюдения

Эта сводка был подготовлена 10 часа и 46 минут назад, в 16:00 UTC
Ветер 14 Узел от западный с порывами до 19 Узел
Температура 22°C
Влажность 33%
Давление 1014 hPa
Видимость 10 км и более
Нет облачности ниже 1500 м, и нет кучево-дождевой облачности

METAR: UMII 201600Z 28007G10MPS CAVOK 22/05 Q1014 R23/D NOSIG

Время: 05:46 (02:46 UTC)

Прогноз

Эта сводка был подготовлена 12 часа и 41 минут назад, в 14:05 UTC
Прогноз действительный с 20-го 15 UTC до 20-го 24 UTC
Ветер 16 Узел от западный с порывами до 25 Узел
Видимость 10 км и более
Отдельные облака на высоте 2000 фута

TAF: UMII 201405Z 2015/2024 27008G13MPS 9999 SCT020

Метеонаблюдения и прогнозы для более 4000 аэропортов (сводки METAR и TAF).

Имеющиеся станции представлены на карте желтыми и красными точками.

Чтобы увидеть название станции, наведите на нее мышь.

Затем щелкните, чтобы увидеть метеонаблюдения и метеопрогнозы.

Управление картой: чтобы увеличить масштаб, щелкните зеленые кнопки с черным крестиком; чтобы уменьшить масштаб, щелкните зеленую кнопку с тире; для просмотра соседних карт щелкайте зеленые стрелки.


METAR-TAF: